Chicago, IL

9:10 PM CDT en Agosto 27, 2016 (GMT -0500)
West Loop | | Change Station

Alt 571 ft 41.88 °N, 87.64 °W | Updated 34 seconds ago

Mostly Cloudy
Muy nublado
82.0 ° F
Sensación térmica 84 ° F
N
5.8
Viento Variable Viento desde OSO

Hoy
Alta -- | Baja -- ° F
--% Posibilidad de precipitaciones
Ayer
Alta -- | Baja -- ° F
Precip. -- pul
Presión 30.03 pul
Visibilidad 10.0 Millas
Nubes Baja 3000 ft
Muy nublado 20000 ft
Muy nublado 25000 ft
Índice de calor 84 ° F
Punto de rocío 66 ° F
Humedad 59%
Precipitaciones 0.42 pul
Espesor de la nieve No disponible.
6:11 AM 7:31 PM
Creciente menguante, 19% visible
METAR KMDW 280153Z 21005KT 10SM FEW030 BKN200 BKN250 27/22 A3006 RMK AO2 SLP168 OCNL LTGIC DSNT N CB DSNT W-N T02720217
Presión 30.03 pul
Visibilidad 10.0 Millas
Nubes Baja 3000 ft
Muy nublado 20000 ft
Muy nublado 25000 ft
Índice de calor 84 ° F
Punto de rocío 66 ° F
Humedad 59%
Precipitaciones 0.42 pul
Espesor de la nieve No disponible.
6:11 AM 7:31 PM
Creciente menguante, 19% visible
METAR KMDW 280153Z 21005KT 10SM FEW030 BKN200 BKN250 27/22 A3006 RMK AO2 SLP168 OCNL LTGIC DSNT N CB DSNT W-N T02720217

10-Day Weather Forecast

Almanac

Astronomía

Aug. 27, 2016 Salida Puesta
Hora real
Crepúsculo civil
Crepúsculo náutico
Crepúsculo astronómico
Luna
Horas de luz
Horas de luz
Tomorrow will be .
, % of the Moon is Illuminated

Extremos de hoy

Máximos del estado Bajos del estado

Community

WunderPhotos

Upload Photos

1,935,491 ¡fotos cargadas!

WunderBlog® & News

Nearby

Calidad del aire

  Calidad del aire Índice AQ Contaminante
Not available.

Grosos de nieve

Estación Profundido Altura

Actividad de terremotos

Ciudad Distance Mag. Tiempo y dato
Magnitud mínima muestra es 2,5.

Temperaturas de aguas costeras

Lugar Temperatura

Stations

Estaciones meteorológicas cercanas

Ubicación de la estación Temp. Vientos helados Punto de rocío Humedad Viento Precip. Alt Actualizado Tipo
                   

Watches & Warnings

There are currently no watches in effect.